アティラウ の空港の天気 - METARとTAF

Atyrau Airport ( UATG / GUW ) - カザフスタン Atyrau
飛行場実況気象(Metar)
観測時間07/17 14:00 ORAT (07/17 09:00 UTC)
風向・風速西北西 3m/s
視程10km以上
天気現象
なし
気温31℃
湿度40%
気圧1003hPa
METARUATG 170900Z 29003MPS CAVOK 31/16 Q1003 R32/CLRD70 NOSIG RMK QFE754/1005
過去の天気等 Google飛行場航空写真 Wunderground天気予報

過去48時間のMETAR

飛行場予報(TAF)
発表時間: 7/17 10:03 ORAT (7/17 05:03 UTC)
予報対象時間: 17日11時 ORAT ~ 18日11時 ORAT
風向・風速西 5m/s
視程10km以上
全天の4割程度の積乱雲 雲底高度 1010m
17日15時 ORAT ~ 17日17時 ORAT に徐々に
風向・風速南西 10m/s
全天の8割程度の積乱雲 雲底高度 610m
18日1時 ORAT ~ 18日3時 ORAT に徐々に
風向・風速不定 2m/s
視程5000m
天気現象もや
TAF UATG 170503Z 1706/1806 27005MPS 9999 SCT033CB TX33/1712Z TN23/1801Z
BECMG 1710/1712 23010MPS BKN020CB
BECMG 1720/1722 VRB02MPS 5000 BR